Latest Coastal Weather Observations for Warrnambool

IDV60701

Issued at 3:41 am EDT Tuesday 24 January 2017 (issued every 10 minutes, with the page automatically refreshed every 10 minutes)

About coastal observations | Map of coastal stations | Coastal observations for VIC | Marine services | Other Formats
Station Details ID: 090186 Name: WARRNAMBOOL AIRPORT NDB Lat: -38.29 Lon: 142.45 Height: 70.8 m
Data from the previous 72 hours. | See also: Recent months at Warrnambool
Date/Time
EDT
Temp
°C
Wind Pressure Rain since
9am
mm
Weather Cloud Vis
km
Sea
Height
m
Swell
Dir  Spd
kts
Gust
kts
hPa Trend Height
m
Period
s
Dir
24/03:30am 17.1 W 18 28 1006.7 - 6.4 - Partly cloudy - - - - -
24/03:28am 17.1 W 18 28 1006.6 - 6.4 - Partly cloudy - - - - -
24/03:23am 17.3 W 17 24 1006.5 - 6.4 - Partly cloudy - - - - -
24/03:00am 17.7 W 21 35 1006.2 - 6.4 Rain Cloudy - - - - -
24/02:32am 18.5 W 18 28 1005.9 - 6.2 - Cloudy - - - - -
24/02:30am 18.5 W 17 24 1005.8 - 6.2 - Cloudy - - - - -
24/02:06am 18.6 W 17 29 1005.5 - 6.2 - Cloudy - - - - -
24/02:00am 18.7 W 17 25 1005.4 - 6.2 - Cloudy - - - - -
24/01:35am 19.0 WNW 15 25 1005.0 - 6.2 - Cloudy - - - - -
24/01:30am 19.0 W 12 18 1004.9 - 6.2 - Partly cloudy - - - - -
24/01:00am 19.0 W 12 15 1004.3 - 6.2 - Partly cloudy - - - - -
24/12:45am 19.9 WNW 16 22 1004.2 - 6.2 - Partly cloudy - - - - -
24/12:30am 20.6 WNW 14 23 1003.8 - 6.2 - Cloudy - - - - -
24/12:28am 20.6 WNW 15 23 1003.9 - 6.2 - Partly cloudy - - - - -
24/12:00am 20.9 WNW 9 13 1003.4 - 6.2 - Cloudy - - - - -
 
Date/Time
EDT
Temp
°C
Wind Pressure Rain since
9am
mm
Weather Cloud Vis
km
Sea
Height
m
Swell
Dir  Spd
kts
Gust
kts
hPa Trend Height
m
Period
s
Dir
23/11:30pm 21.0 NW 11 15 1003.1 - 6.2 - Partly cloudy - - - - -
23/11:00pm 20.5 NNW 9 11 1002.9 - 6.2 - Partly cloudy - - - - -
23/10:30pm 20.5 NNW 11 14 1003.1 - 6.2 - Partly cloudy - - - - -
23/10:00pm 19.6 N 8 11 1002.9 - 6.2 - Partly cloudy - - - - -
23/09:30pm 19.4 N 7 8 1003.0 - 6.2 - Partly cloudy - - - - -
23/09:00pm 19.5 N 8 11 1002.9 - 6.2 - Cloudy - - - - -
23/08:30pm 18.8 N 9 11 1003.1 - 6.2 - Partly cloudy - - - - -
23/08:00pm 18.7 N 9 12 1003.3 - 6.2 - Partly cloudy - - - - -
23/07:30pm 18.8 N 9 11 1003.5 - 5.4 - Partly cloudy 10 - - - -
23/07:00pm 18.9 NE 4 5 1003.5 - 5.2 - Partly cloudy 10 - - - -
23/06:30pm 18.4 SE 4 5 1003.8 - 4.8 - Partly cloudy 10 - - - -
23/06:04pm 18.3 CALM 0 5 1004.1 - 4.2 - Cloudy 10 - - - -
23/06:00pm 18.4 CALM 0 0 1004.3 - 4.2 Showers Cloudy 9 - - - -
23/05:45pm 18.1 W 5 7 1004.8 - 3.6 - Partly cloudy 5 - - - -
23/05:30pm 18.3 W 8 11 1005.2 - 2.6 - Partly cloudy 10 - - - -
23/05:00pm 18.3 W 10 13 1005.2 - 1.4 - Partly cloudy 10 - - - -
23/04:30pm 18.9 WSW 16 23 1004.9 - 0.6 - Cloudy 10 - - - -
23/04:00pm 20.3 WSW 17 21 1004.4 - 0.0 - Partly cloudy 10 - - - -
23/03:30pm 23.7 SW 15 21 1003.5 - 0.0 - Partly cloudy - - - - -
23/03:28pm 23.9 SW 16 21 1003.5 - 0.0 - Partly cloudy - - - - -
23/03:00pm 28.9 WSW 16 21 1002.8 - 0.0 - Cloudy 10 - - - -
23/02:30pm 32.1 SSW 12 17 1002.5 - 0.0 - Partly cloudy 10 - - - -
23/02:00pm 29.6 SSW 9 13 1002.9 - 0.0 - Partly cloudy 10 - - - -
23/01:30pm 28.8 SW 11 15 1003.0 - 0.0 - Partly cloudy 10 - - - -
23/01:00pm 27.2 SSW 11 15 1003.3 - 0.0 - Partly cloudy 10 - - - -
23/12:30pm 29.6 SW 10 12 1003.5 - 0.0 - Partly cloudy 10 - - - -
23/12:00pm 29.8 W 12 16 1003.7 - 0.0 - Mostly clear 10 - - - -
23/11:30am 33.0 NNW 11 17 1003.8 - 0.0 - - 10 - - - -
23/11:00am 31.1 NNW 7 10 1004.1 - 0.0 - Partly cloudy 10 - - - -
23/10:30am 30.1 N 9 12 1004.5 - 0.0 - Partly cloudy 10 - - - -
23/10:00am 28.2 NNE 6 9 1004.6 - 0.0 - Cloudy 10 - - - -
23/09:30am 26.0 NNE 9 11 1004.6 - 0.0 - Cloudy 10 - - - -
23/09:00am 24.0 NNE 9 12 1005.1 - 0.0 - Cloudy 10 - - - -
23/08:30am 21.9 NNE 9 11 1005.4 - 0.0 - Cloudy 10 - - - -
23/08:00am 20.5 NNE 5 7 1005.0 - 0.0 - Cloudy - - - - -
23/07:30am 19.1 N 7 9 1005.2 - 0.0 - Cloudy - - - - -
23/07:00am 18.6 NNE 7 10 1005.0 - 0.0 - - - - - - -
23/06:30am 18.3 NNE 9 11 1005.1 - 0.0 - - - - - - -
23/06:00am 17.9 NNE 8 10 1005.2 - 0.0 - Cloudy - - - - -
23/05:30am 17.8 NNE 6 8 1005.3 - 0.0 - - - - - - -
23/05:00am 17.7 NE 6 7 1005.6 - 0.0 - - - - - - -
23/04:30am 17.7 NE 6 7 1005.9 - 0.0 - - - - - - -
23/04:00am 17.9 NE 6 8 1006.2 - 0.0 - - - - - - -
23/03:30am 18.0 NE 6 8 1006.5 - 0.0 - - - - - - -
23/03:00am 18.3 NE 6 8 1007.2 - 0.0 - Cloudy - - - - -
23/02:30am 18.4 ENE 3 6 1007.0 - 0.0 - Partly cloudy - - - - -
23/02:00am 18.6 NE 5 6 1007.4 - 0.0 - Partly cloudy - - - - -
23/01:30am 18.8 ENE 4 5 1007.8 - 0.0 - - - - - - -
23/01:00am 18.7 E 5 7 1008.2 - 0.0 - - - - - - -
23/12:30am 17.6 CALM 0 0 1008.8 - 0.0 - - - - - - -
23/12:00am 17.5 CALM 0 0 1009.2 - 0.0 - Cloudy - - - - -
 
Date/Time
EDT
Temp
°C
Wind Pressure Rain since
9am
mm
Weather Cloud Vis
km
Sea
Height
m
Swell
Dir  Spd
kts
Gust
kts
hPa Trend Height
m
Period
s
Dir
22/11:30pm 17.8 CALM 0 3 1009.3 - 0.0 - - - - - - -
22/11:00pm 18.1 S 3 4 1009.7 - 0.0 - - - - - - -
22/10:30pm 18.3 SSW 3 5 1010.1 - 0.0 - - - - - - -
22/10:00pm 18.8 S 5 6 1010.3 - 0.0 - - - - - - -
22/09:30pm 18.9 SE 4 5 1010.3 - 0.0 - - - - - - -
22/09:00pm 18.5 SSE 5 6 1010.4 - 0.0 - Partly cloudy - - - - -
22/08:30pm 20.2 SSE 7 8 1010.4 - 0.0 - - - - - - -
22/08:00pm 21.7 SSE 9 13 1010.3 - 0.0 - - - - - - -
22/07:30pm 22.4 SSE 12 16 1010.1 - 0.0 - - - - - - -
22/07:00pm 23.4 SSE 12 15 1010.1 - 0.0 - - - - - - -
22/06:30pm 24.3 SSE 12 16 1010.5 - 0.0 - - - - - - -
22/06:00pm 25.2 SSE 12 15 1010.6 - 0.0 - - - - - - -
22/05:30pm 25.6 S 12 15 1010.9 - 0.0 - - - - - - -
22/05:00pm 26.1 S 13 16 1011.1 - 0.0 - - - - - - -
22/04:30pm 26.6 S 13 17 1011.3 - 0.0 - - - - - - -
22/04:00pm 26.7 S 14 18 1011.7 - 0.0 - - - - - - -
22/03:30pm 27.5 S 13 17 1012.0 - 0.0 - - - - - - -
22/03:00pm 28.0 S 11 14 1012.1 - 0.0 - - - - - - -
22/02:30pm 27.9 SSE 9 14 1012.6 - 0.0 - - - - - - -
22/02:00pm 27.5 S 10 14 1013.0 - 0.0 - - - - - - -
22/01:30pm 27.3 SSE 7 13 1013.2 - 0.0 - - - - - - -
22/01:00pm 27.0 SE 4 8 1013.5 - 0.0 - - - - - - -
22/12:30pm 26.5 N 4 8 1013.6 - 0.0 - - - - - - -
22/12:00pm 25.9 E 6 8 1013.9 - 0.0 - - - - - - -
22/11:30am 24.5 ENE 7 10 1014.1 - 0.0 - - - - - - -
22/11:00am 22.8 NE 9 13 1014.2 - 0.0 - - - - - - -
22/10:30am 21.5 NE 9 13 1014.5 - 0.0 - - - - - - -
22/10:00am 19.6 NE 12 16 1014.7 - 0.0 - - - - - - -
22/09:30am 18.1 NE 11 15 1014.9 - 0.0 - - - - - - -
22/09:00am 16.5 NE 10 16 1015.1 - 0.0 - - - - - - -
22/08:30am 15.1 NE 11 16 1015.1 - 0.0 - - - - - - -
22/08:00am 13.8 NE 9 13 1015.2 - 0.0 - - - - - - -
22/07:30am 12.2 NE 8 10 1015.3 - 0.0 - - - - - - -
22/07:00am 10.6 NNE 7 8 1015.4 - 0.0 - - - - - - -
22/06:30am 10.0 NNE 6 7 1015.3 - 0.0 - - - - - - -
22/06:00am 11.0 NNE 8 9 1015.3 - 0.0 - - - - - - -
22/05:30am 9.7 NNE 6 7 1015.4 - 0.0 - - - - - - -
22/05:00am 9.7 NNE 5 6 1015.3 - 0.0 - - - - - - -
22/04:30am 11.3 NE 5 6 1015.2 - 0.0 - - - - - - -
22/04:00am 11.6 ENE 5 6 1015.1 - 0.0 - - - - - - -
22/03:30am 11.4 NE 6 7 1015.2 - 0.0 - - - - - - -
22/03:00am 11.4 NE 5 7 1015.5 - 0.0 - - - - - - -
22/02:30am 10.4 NE 6 7 1015.6 - 0.0 - - - - - - -
22/02:00am 11.8 NE 4 5 1015.9 - 0.0 - - - - - - -
22/01:30am 11.7 ENE 4 5 1016.1 - 0.0 - - - - - - -
22/01:00am 10.6 CALM 0 2 1016.5 - 0.0 - - - - - - -
22/12:30am 11.4 E 3 3 1016.7 - 0.0 - - - - - - -
22/12:00am 12.5 SE 3 4 1016.8 - 0.0 - - - - - - -
 
Date/Time
EDT
Temp
°C
Wind Pressure Rain since
9am
mm
Weather Cloud Vis
km
Sea
Height
m
Swell
Dir  Spd
kts
Gust
kts
hPa Trend Height
m
Period
s
Dir
21/11:30pm 12.9 SE 4 4 1016.9 - 0.0 - - - - - - -
21/11:00pm 12.3 SE 3 4 1017.2 - 0.0 - - - - - - -
21/10:30pm 12.5 SE 4 5 1017.2 - 0.0 - - - - - - -
21/10:00pm 13.1 SE 5 6 1016.8 - 0.0 - - - - - - -
21/09:30pm 13.4 SSE 6 6 1016.7 - 0.0 - - - - - - -
21/09:00pm 14.8 SSE 6 6 1016.6 - 0.0 - - - - - - -
21/08:30pm 16.6 SSE 7 9 1016.6 - 0.0 - - - - - - -
21/08:00pm 17.6 SSE 9 13 1016.2 - 0.0 - - - - - - -
21/07:30pm 18.5 SSE 8 11 1015.8 - 0.0 - - - - - - -
21/07:00pm 18.8 S 9 11 1015.5 - 0.0 - - - - - - -
21/06:30pm 19.1 SSW 10 15 1015.5 - 0.0 - - - - - - -
21/06:00pm 19.6 S 10 14 1015.4 - 0.0 - - - - - - -
21/05:30pm 19.5 SSW 9 12 1015.5 - 0.0 - - - - - - -
21/05:00pm 19.8 SSW 9 14 1015.8 - 0.0 - - - - - - -
21/04:30pm 19.9 SSW 9 15 1015.9 - 0.0 - - - - - - -
21/04:00pm 19.9 SSW 10 17 1016.1 - 0.0 - - - - - - -
21/03:30pm 19.4 SSW 12 16 1016.1 - 0.0 - - - - - - -
21/03:00pm 20.2 SSW 11 17 1016.2 - 0.0 - Mostly clear - - - - -
21/02:30pm 20.0 SW 10 15 1016.2 - 0.0 - Partly cloudy - - - - -
21/02:00pm 20.4 SSW 10 16 1016.1 - 0.0 - Partly cloudy - - - - -
21/01:30pm 20.3 SSW 10 15 1016.1 - 0.0 - Partly cloudy - - - - -
21/01:00pm 19.5 SSW 8 13 1016.3 - 0.0 - Partly cloudy - - - - -
21/12:30pm 19.3 SW 11 15 1016.3 - 0.0 - Cloudy - - - - -
21/12:00pm 18.7 SW 10 15 1016.4 - 0.0 - Cloudy - - - - -
21/11:30am 18.9 SW 12 18 1016.4 - 0.0 - Partly cloudy - - - - -
21/11:00am 19.6 SW 10 13 1016.4 - 0.0 - Partly cloudy - - - - -
21/10:30am 18.0 WSW 9 17 1016.2 - 0.0 - Partly cloudy - - - - -
21/10:00am 17.3 WSW 10 13 1015.9 - 0.0 - Partly cloudy - - - - -
21/09:30am 17.6 W 7 11 1015.6 - 0.0 - Partly cloudy - - - - -
21/09:00am 16.3 WNW 7 10 1015.5 - 0.0 - - - - - - -
21/08:30am 14.0 WNW 7 10 1015.0 - 0.0 - Partly cloudy - - - - -
21/08:00am 12.8 NW 7 10 1014.7 - 0.0 - - - - - - -
21/07:30am 10.8 NW 7 8 1014.0 - 0.0 - Partly cloudy - - - - -
21/07:00am 10.0 NW 7 8 1013.7 - 0.0 - Partly cloudy - - - - -
21/06:30am 9.0 NW 6 7 1013.4 - 0.0 - Partly cloudy - - - - -
21/06:00am 8.9 NW 7 8 1012.9 - 0.0 - - - - - - -
21/05:30am 8.8 NW 8 9 1012.7 - 0.0 - - - - - - -
21/05:00am 8.0 NW 6 7 1012.5 - 0.0 - Partly cloudy - - - - -
21/04:30am 7.7 NNW 5 6 1012.3 - 0.0 - - - - - - -
21/04:00am 8.1 NW 5 6 1012.3 - 0.0 - - - - - - -

Other Formats:

Comma delimited format used in spreadsheet applications
http://www.bom.gov.au/fwo/IDV60701/IDV60701.94837.axf

JavaScript Object Notation format (JSON) in row-major order
http://www.bom.gov.au/fwo/IDV60701/IDV60701.94837.json